sensor_id;sensor_type;location;lat;lon;timestamp;P1;durP1;ratioP1;P2;durP2;ratioP2
64214;SDS011;54441;52.110;5.252;2022-07-18T00:00:49;8.6;;;6.4;;
64214;SDS011;54441;52.110;5.252;2022-07-18T00:02:36;6.9;;;6.2;;
64214;SDS011;54441;52.110;5.252;2022-07-18T00:04:23;10.1;;;6.4;;
64214;SDS011;54441;52.110;5.252;2022-07-18T00:07:57;8.81;;;6.1;;
64214;SDS011;54441;52.110;5.252;2022-07-18T00:09:43;10.3;;;6.7;;
64214;SDS011;54441;52.110;5.252;2022-07-18T00:11:30;13.0;;;6.6;;
64214;SDS011;54441;52.110;5.252;2022-07-18T00:13:17;8.1;;;6.1;;
64214;SDS011;54441;52.110;5.252;2022-07-18T00:15:05;10.8;;;6.3;;
64214;SDS011;54441;52.110;5.252;2022-07-18T00:16:52;7.7;;;6.2;;
64214;SDS011;54441;52.110;5.252;2022-07-18T00:20:25;9.21;;;6.6;;
64214;SDS011;54441;52.110;5.252;2022-07-18T00:22:12;10.5;;;6.6;;
64214;SDS011;54441;52.110;5.252;2022-07-18T00:23:59;8.4;;;6.2;;
64214;SDS011;54441;52.110;5.252;2022-07-18T00:25:46;10.21;;;6.2;;
64214;SDS011;54441;52.110;5.252;2022-07-18T00:27:33;8.0;;;5.8;;
64214;SDS011;54441;52.110;5.252;2022-07-18T00:29:21;10.6;;;6.5;;
64214;SDS011;54441;52.110;5.252;2022-07-18T00:32:53;9.0;;;6.6;;
64214;SDS011;54441;52.110;5.252;2022-07-18T00:34:39;8.0;;;6.7;;
64214;SDS011;54441;52.110;5.252;2022-07-18T00:36:26;7.0;;;5.6;;
64214;SDS011;54441;52.110;5.252;2022-07-18T00:38:13;7.0;;;5.9;;
64214;SDS011;54441;52.110;5.252;2022-07-18T00:40:00;8.6;;;5.9;;
64214;SDS011;54441;52.110;5.252;2022-07-18T00:43:34;7.8;;;5.9;;
64214;SDS011;54441;52.110;5.252;2022-07-18T00:45:20;6.5;;;5.8;;
64214;SDS011;54441;52.110;5.252;2022-07-18T00:47:07;7.8;;;5.9;;
64214;SDS011;54441;52.110;5.252;2022-07-18T00:48:55;8.5;;;5.9;;
64214;SDS011;54441;52.110;5.252;2022-07-18T00:50:42;8.71;;;5.9;;
64214;SDS011;54441;52.110;5.252;2022-07-18T00:52:29;7.4;;;5.7;;
64214;SDS011;54441;52.110;5.252;2022-07-18T00:56:05;9.31;;;5.6;;
64214;SDS011;54441;52.110;5.252;2022-07-18T00:57:52;8.2;;;5.8;;
64214;SDS011;54441;52.110;5.252;2022-07-18T01:02:44;7.4;;;6.1;;
64214;SDS011;54441;52.110;5.252;2022-07-18T01:04:31;8.0;;;5.9;;
64214;SDS011;54441;52.110;5.252;2022-07-18T01:06:17;7.6;;;6.3;;
64214;SDS011;54441;52.110;5.252;2022-07-18T01:08:05;8.71;;;6.1;;
64214;SDS011;54441;52.110;5.252;2022-07-18T01:09:52;7.9;;;5.6;;
64214;SDS011;54441;52.110;5.252;2022-07-18T01:11:39;6.4;;;5.5;;
64214;SDS011;54441;52.110;5.252;2022-07-18T01:13:26;9.0;;;5.9;;
64214;SDS011;54441;52.110;5.252;2022-07-18T01:16:59;8.0;;;6.0;;
64214;SDS011;54441;52.110;5.252;2022-07-18T01:18:46;8.9;;;6.2;;
64214;SDS011;54441;52.110;5.252;2022-07-18T01:20:34;8.5;;;6.4;;
64214;SDS011;54441;52.110;5.252;2022-07-18T01:22:21;12.2;;;7.1;;
64214;SDS011;54441;52.110;5.252;2022-07-18T01:24:08;7.7;;;6.1;;
64214;SDS011;54441;52.110;5.252;2022-07-18T01:25:54;7.6;;;5.8;;
64214;SDS011;54441;52.110;5.252;2022-07-18T01:29:27;6.7;;;5.6;;
64214;SDS011;54441;52.110;5.252;2022-07-18T01:31:13;8.2;;;5.9;;
64214;SDS011;54441;52.110;5.252;2022-07-18T01:33:01;8.2;;;5.7;;
64214;SDS011;54441;52.110;5.252;2022-07-18T01:34:49;6.6;;;5.9;;
64214;SDS011;54441;52.110;5.252;2022-07-18T01:36:36;12.9;;;6.1;;
64214;SDS011;54441;52.110;5.252;2022-07-18T01:38:24;13.4;;;5.9;;
64214;SDS011;54441;52.110;5.252;2022-07-18T01:41:58;7.8;;;5.8;;
64214;SDS011;54441;52.110;5.252;2022-07-18T01:43:47;6.6;;;5.7;;
64214;SDS011;54441;52.110;5.252;2022-07-18T01:45:35;11.1;;;6.7;;
64214;SDS011;54441;52.110;5.252;2022-07-18T01:47:21;7.9;;;5.7;;
64214;SDS011;54441;52.110;5.252;2022-07-18T01:49:08;8.31;;;5.9;;
64214;SDS011;54441;52.110;5.252;2022-07-18T01:52:40;8.9;;;6.2;;
64214;SDS011;54441;52.110;5.252;2022-07-18T01:54:29;9.71;;;6.6;;
64214;SDS011;54441;52.110;5.252;2022-07-18T01:56:18;11.0;;;6.4;;
64214;SDS011;54441;52.110;5.252;2022-07-18T01:58:04;7.2;;;5.3;;
64214;SDS011;54441;52.110;5.252;2022-07-18T01:59:51;7.8;;;5.6;;
64214;SDS011;54441;52.110;5.252;2022-07-18T02:01:38;9.9;;;6.1;;
64214;SDS011;54441;52.110;5.252;2022-07-18T02:05:12;8.1;;;6.0;;
64214;SDS011;54441;52.110;5.252;2022-07-18T02:06:59;7.8;;;5.9;;
64214;SDS011;54441;52.110;5.252;2022-07-18T02:08:45;7.3;;;6.1;;
64214;SDS011;54441;52.110;5.252;2022-07-18T02:10:32;7.6;;;5.7;;
64214;SDS011;54441;52.110;5.252;2022-07-18T02:12:19;7.7;;;5.6;;
64214;SDS011;54441;52.110;5.252;2022-07-18T02:14:06;7.8;;;6.4;;
64214;SDS011;54441;52.110;5.252;2022-07-18T02:17:41;10.5;;;6.5;;
64214;SDS011;54441;52.110;5.252;2022-07-18T02:19:30;9.6;;;6.0;;
64214;SDS011;54441;52.110;5.252;2022-07-18T02:21:16;8.6;;;6.4;;
64214;SDS011;54441;52.110;5.252;2022-07-18T02:23:04;6.7;;;5.7;;
64214;SDS011;54441;52.110;5.252;2022-07-18T02:24:51;9.71;;;6.5;;
64214;SDS011;54441;52.110;5.252;2022-07-18T02:26:38;10.5;;;6.0;;
64214;SDS011;54441;52.110;5.252;2022-07-18T02:30:10;7.2;;;5.3;;
64214;SDS011;54441;52.110;5.252;2022-07-18T02:31:58;6.4;;;5.6;;
64214;SDS011;54441;52.110;5.252;2022-07-18T02:33:45;10.9;;;5.6;;
64214;SDS011;54441;52.110;5.252;2022-07-18T02:35:31;6.2;;;5.6;;
64214;SDS011;54441;52.110;5.252;2022-07-18T02:37:17;7.2;;;5.4;;
64214;SDS011;54441;52.110;5.252;2022-07-18T02:39:03;6.4;;;5.5;;
64214;SDS011;54441;52.110;5.252;2022-07-18T02:42:39;6.2;;;5.11;;
64214;SDS011;54441;52.110;5.252;2022-07-18T02:44:26;8.4;;;5.6;;
64214;SDS011;54441;52.110;5.252;2022-07-18T02:46:12;7.4;;;5.5;;
64214;SDS011;54441;52.110;5.252;2022-07-18T02:47:58;6.5;;;5.8;;
64214;SDS011;54441;52.110;5.252;2022-07-18T02:49:45;8.71;;;6.0;;
64214;SDS011;54441;52.110;5.252;2022-07-18T02:53:23;7.6;;;6.0;;
64214;SDS011;54441;52.110;5.252;2022-07-18T02:55:09;8.2;;;5.6;;
64214;SDS011;54441;52.110;5.252;2022-07-18T02:56:58;7.0;;;5.8;;
64214;SDS011;54441;52.110;5.252;2022-07-18T02:58:44;7.8;;;6.3;;
64214;SDS011;54441;52.110;5.252;2022-07-18T03:00:32;8.71;;;5.6;;
64214;SDS011;54441;52.110;5.252;2022-07-18T03:02:19;6.5;;;5.3;;
64214;SDS011;54441;52.110;5.252;2022-07-18T03:05:51;7.5;;;6.2;;
64214;SDS011;54441;52.110;5.252;2022-07-18T03:07:38;6.6;;;5.4;;
64214;SDS011;54441;52.110;5.252;2022-07-18T03:09:27;7.6;;;6.1;;
64214;SDS011;54441;52.110;5.252;2022-07-18T03:11:13;6.2;;;5.4;;
64214;SDS011;54441;52.110;5.252;2022-07-18T03:12:59;6.3;;;5.3;;
64214;SDS011;54441;52.110;5.252;2022-07-18T03:14:46;8.4;;;5.7;;
64214;SDS011;54441;52.110;5.252;2022-07-18T03:18:19;6.1;;;4.8;;
64214;SDS011;54441;52.110;5.252;2022-07-18T03:20:06;7.9;;;6.1;;
64214;SDS011;54441;52.110;5.252;2022-07-18T03:21:53;7.4;;;5.7;;
64214;SDS011;54441;52.110;5.252;2022-07-18T03:23:40;6.7;;;5.6;;
64214;SDS011;54441;52.110;5.252;2022-07-18T03:25:26;9.71;;;5.8;;
64214;SDS011;54441;52.110;5.252;2022-07-18T03:27:12;7.0;;;5.7;;
64214;SDS011;54441;52.110;5.252;2022-07-18T03:30:45;6.3;;;5.5;;
64214;SDS011;54441;52.110;5.252;2022-07-18T03:32:31;7.3;;;6.1;;
64214;SDS011;54441;52.110;5.252;2022-07-18T03:34:17;9.9;;;6.3;;
64214;SDS011;54441;52.110;5.252;2022-07-18T03:36:05;7.4;;;5.4;;
64214;SDS011;54441;52.110;5.252;2022-07-18T03:37:52;7.2;;;5.2;;
64214;SDS011;54441;52.110;5.252;2022-07-18T03:41:25;8.4;;;5.3;;
64214;SDS011;54441;52.110;5.252;2022-07-18T03:43:11;8.31;;;5.7;;
64214;SDS011;54441;52.110;5.252;2022-07-18T03:44:58;6.3;;;5.6;;
64214;SDS011;54441;52.110;5.252;2022-07-18T03:46:44;6.4;;;5.7;;
64214;SDS011;54441;52.110;5.252;2022-07-18T03:48:31;7.1;;;6.0;;
64214;SDS011;54441;52.110;5.252;2022-07-18T03:50:18;5.9;;;5.4;;
64214;SDS011;54441;52.110;5.252;2022-07-18T03:53:51;9.71;;;5.6;;
64214;SDS011;54441;52.110;5.252;2022-07-18T03:55:38;5.6;;;5.11;;
64214;SDS011;54441;52.110;5.252;2022-07-18T03:57:24;6.2;;;4.7;;
64214;SDS011;54441;52.110;5.252;2022-07-18T03:59:11;6.5;;;5.3;;
64214;SDS011;54441;52.110;5.252;2022-07-18T04:00:58;6.1;;;5.11;;
64214;SDS011;54441;52.110;5.252;2022-07-18T04:02:45;7.2;;;5.11;;
64214;SDS011;54441;52.110;5.252;2022-07-18T04:06:20;6.4;;;5.3;;
64214;SDS011;54441;52.110;5.252;2022-07-18T04:08:07;5.7;;;5.0;;
64214;SDS011;54441;52.110;5.252;2022-07-18T04:09:53;6.8;;;5.3;;
64214;SDS011;54441;52.110;5.252;2022-07-18T04:11:39;6.1;;;5.5;;
64214;SDS011;54441;52.110;5.252;2022-07-18T04:13:25;6.4;;;4.91;;
64214;SDS011;54441;52.110;5.252;2022-07-18T04:16:57;8.0;;;4.91;;
64214;SDS011;54441;52.110;5.252;2022-07-18T04:18:44;7.6;;;5.0;;
64214;SDS011;54441;52.110;5.252;2022-07-18T04:20:31;5.9;;;5.3;;
64214;SDS011;54441;52.110;5.252;2022-07-18T04:22:19;5.9;;;4.61;;
64214;SDS011;54441;52.110;5.252;2022-07-18T04:24:05;5.3;;;4.8;;
64214;SDS011;54441;52.110;5.252;2022-07-18T04:25:52;8.0;;;4.5;;
64214;SDS011;54441;52.110;5.252;2022-07-18T04:29:26;6.5;;;5.0;;
64214;SDS011;54441;52.110;5.252;2022-07-18T04:31:13;7.7;;;4.7;;
64214;SDS011;54441;52.110;5.252;2022-07-18T04:33:00;4.91;;;3.9;;
64214;SDS011;54441;52.110;5.252;2022-07-18T04:34:48;5.3;;;4.2;;
64214;SDS011;54441;52.110;5.252;2022-07-18T04:36:34;4.91;;;4.0;;
64214;SDS011;54441;52.110;5.252;2022-07-18T04:38:21;7.7;;;4.1;;
64214;SDS011;54441;52.110;5.252;2022-07-18T04:41:56;5.2;;;4.3;;
64214;SDS011;54441;52.110;5.252;2022-07-18T04:43:42;6.1;;;4.3;;
64214;SDS011;54441;52.110;5.252;2022-07-18T04:45:28;5.7;;;4.2;;
64214;SDS011;54441;52.110;5.252;2022-07-18T04:47:16;6.3;;;4.41;;
64214;SDS011;54441;52.110;5.252;2022-07-18T04:49:03;6.4;;;4.2;;
64214;SDS011;54441;52.110;5.252;2022-07-18T04:50:49;4.7;;;3.6;;
64214;SDS011;54441;52.110;5.252;2022-07-18T04:54:23;5.4;;;4.2;;
64214;SDS011;54441;52.110;5.252;2022-07-18T04:56:10;5.9;;;4.2;;
64214;SDS011;54441;52.110;5.252;2022-07-18T04:57:56;6.3;;;4.8;;
64214;SDS011;54441;52.110;5.252;2022-07-18T04:59:43;6.8;;;4.2;;
64214;SDS011;54441;52.110;5.252;2022-07-18T05:01:31;5.8;;;4.61;;
64214;SDS011;54441;52.110;5.252;2022-07-18T05:05:04;6.9;;;4.7;;
64214;SDS011;54441;52.110;5.252;2022-07-18T05:06:51;5.6;;;4.61;;
64214;SDS011;54441;52.110;5.252;2022-07-18T05:08:37;5.4;;;4.41;;
64214;SDS011;54441;52.110;5.252;2022-07-18T05:10:23;4.91;;;4.41;;
64214;SDS011;54441;52.110;5.252;2022-07-18T05:12:10;5.4;;;4.91;;
64214;SDS011;54441;52.110;5.252;2022-07-18T05:13:57;7.7;;;4.3;;
64214;SDS011;54441;52.110;5.252;2022-07-18T05:17:30;7.2;;;4.8;;
64214;SDS011;54441;52.110;5.252;2022-07-18T05:19:16;6.2;;;4.61;;
64214;SDS011;54441;52.110;5.252;2022-07-18T05:21:02;9.6;;;4.8;;
64214;SDS011;54441;52.110;5.252;2022-07-18T05:22:51;6.8;;;4.0;;
64214;SDS011;54441;52.110;5.252;2022-07-18T05:24:39;8.5;;;4.1;;
64214;SDS011;54441;52.110;5.252;2022-07-18T05:26:25;4.8;;;4.2;;
64214;SDS011;54441;52.110;5.252;2022-07-18T05:29:59;7.7;;;4.3;;
64214;SDS011;54441;52.110;5.252;2022-07-18T05:31:46;6.2;;;5.11;;
64214;SDS011;54441;52.110;5.252;2022-07-18T05:33:34;6.6;;;4.2;;
64214;SDS011;54441;52.110;5.252;2022-07-18T05:35:20;7.0;;;4.61;;
64214;SDS011;54441;52.110;5.252;2022-07-18T05:37:08;6.1;;;5.2;;
64214;SDS011;54441;52.110;5.252;2022-07-18T05:40:41;4.91;;;4.1;;
64214;SDS011;54441;52.110;5.252;2022-07-18T05:42:27;5.11;;;4.0;;
64214;SDS011;54441;52.110;5.252;2022-07-18T05:44:13;6.2;;;4.0;;
64214;SDS011;54441;52.110;5.252;2022-07-18T05:45:59;4.8;;;4.1;;
64214;SDS011;54441;52.110;5.252;2022-07-18T05:47:45;4.1;;;3.6;;
64214;SDS011;54441;52.110;5.252;2022-07-18T05:49:32;5.3;;;4.0;;
64214;SDS011;54441;52.110;5.252;2022-07-18T05:53:07;5.5;;;3.9;;
64214;SDS011;54441;52.110;5.252;2022-07-18T05:54:54;4.5;;;4.0;;
64214;SDS011;54441;52.110;5.252;2022-07-18T05:56:40;5.7;;;3.8;;
64214;SDS011;54441;52.110;5.252;2022-07-18T05:58:26;5.8;;;3.4;;
64214;SDS011;54441;52.110;5.252;2022-07-18T06:00:13;9.9;;;4.0;;
64214;SDS011;54441;52.110;5.252;2022-07-18T06:02:00;6.3;;;3.6;;
64214;SDS011;54441;52.110;5.252;2022-07-18T06:05:34;9.21;;;3.9;;
64214;SDS011;54441;52.110;5.252;2022-07-18T06:07:20;17.3;;;8.0;;
64214;SDS011;54441;52.110;5.252;2022-07-18T06:09:08;8.9;;;6.0;;
64214;SDS011;54441;52.110;5.252;2022-07-18T06:10:55;11.1;;;5.5;;
64214;SDS011;54441;52.110;5.252;2022-07-18T06:12:41;10.3;;;6.7;;
64214;SDS011;54441;52.110;5.252;2022-07-18T06:16:14;7.8;;;4.61;;
64214;SDS011;54441;52.110;5.252;2022-07-18T06:18:02;7.8;;;4.61;;
64214;SDS011;54441;52.110;5.252;2022-07-18T06:19:48;10.4;;;4.61;;
64214;SDS011;54441;52.110;5.252;2022-07-18T06:21:35;7.0;;;3.9;;
64214;SDS011;54441;52.110;5.252;2022-07-18T06:23:21;4.8;;;3.3;;
64214;SDS011;54441;52.110;5.252;2022-07-18T06:25:08;7.1;;;3.4;;
64214;SDS011;54441;52.110;5.252;2022-07-18T06:28:43;4.1;;;2.9;;
64214;SDS011;54441;52.110;5.252;2022-07-18T06:30:29;3.4;;;2.7;;
64214;SDS011;54441;52.110;5.252;2022-07-18T06:32:15;7.0;;;3.5;;
64214;SDS011;54441;52.110;5.252;2022-07-18T06:34:01;6.5;;;3.0;;
64214;SDS011;54441;52.110;5.252;2022-07-18T06:35:48;5.5;;;3.2;;
64214;SDS011;54441;52.110;5.252;2022-07-18T06:37:36;5.5;;;3.0;;
64214;SDS011;54441;52.110;5.252;2022-07-18T06:41:09;5.6;;;3.0;;
64214;SDS011;54441;52.110;5.252;2022-07-18T06:42:56;3.8;;;2.7;;
64214;SDS011;54441;52.110;5.252;2022-07-18T06:44:42;5.5;;;3.2;;
64214;SDS011;54441;52.110;5.252;2022-07-18T06:46:30;7.8;;;3.4;;
64214;SDS011;54441;52.110;5.252;2022-07-18T06:48:16;4.5;;;3.0;;
64214;SDS011;54441;52.110;5.252;2022-07-18T06:51:49;5.0;;;2.7;;
64214;SDS011;54441;52.110;5.252;2022-07-18T06:53:35;4.5;;;3.1;;
64214;SDS011;54441;52.110;5.252;2022-07-18T06:55:23;5.4;;;3.1;;
64214;SDS011;54441;52.110;5.252;2022-07-18T06:57:09;6.7;;;3.0;;
64214;SDS011;54441;52.110;5.252;2022-07-18T06:58:55;7.5;;;3.0;;
64214;SDS011;54441;52.110;5.252;2022-07-18T07:00:41;18.0;;;3.2;;
64214;SDS011;54441;52.110;5.252;2022-07-18T07:04:15;5.6;;;2.9;;
64214;SDS011;54441;52.110;5.252;2022-07-18T07:06:01;9.1;;;2.9;;
64214;SDS011;54441;52.110;5.252;2022-07-18T07:07:47;6.6;;;2.8;;
64214;SDS011;54441;52.110;5.252;2022-07-18T07:09:34;3.6;;;2.9;;
64214;SDS011;54441;52.110;5.252;2022-07-18T07:11:22;4.41;;;2.4;;
64214;SDS011;54441;52.110;5.252;2022-07-18T07:13:09;6.3;;;3.1;;
64214;SDS011;54441;52.110;5.252;2022-07-18T07:16:41;4.2;;;2.8;;
64214;SDS011;54441;52.110;5.252;2022-07-18T07:18:27;5.4;;;3.3;;
64214;SDS011;54441;52.110;5.252;2022-07-18T07:20:13;9.0;;;4.0;;
64214;SDS011;54441;52.110;5.252;2022-07-18T07:22:01;4.5;;;2.7;;
64214;SDS011;54441;52.110;5.252;2022-07-18T07:23:49;4.0;;;3.2;;
64214;SDS011;54441;52.110;5.252;2022-07-18T07:27:24;5.11;;;3.2;;
64214;SDS011;54441;52.110;5.252;2022-07-18T07:29:10;6.6;;;3.1;;
64214;SDS011;54441;52.110;5.252;2022-07-18T07:30:57;5.0;;;3.0;;
64214;SDS011;54441;52.110;5.252;2022-07-18T07:32:45;5.3;;;2.9;;
64214;SDS011;54441;52.110;5.252;2022-07-18T07:34:32;5.5;;;3.3;;
64214;SDS011;54441;52.110;5.252;2022-07-18T07:36:18;6.4;;;3.1;;
64214;SDS011;54441;52.110;5.252;2022-07-18T07:39:51;5.4;;;3.0;;
64214;SDS011;54441;52.110;5.252;2022-07-18T07:41:37;10.7;;;3.6;;
64214;SDS011;54441;52.110;5.252;2022-07-18T07:43:24;4.0;;;2.8;;
64214;SDS011;54441;52.110;5.252;2022-07-18T07:45:10;6.5;;;3.3;;
64214;SDS011;54441;52.110;5.252;2022-07-18T07:46:59;5.6;;;3.3;;
64214;SDS011;54441;52.110;5.252;2022-07-18T07:48:47;6.3;;;2.9;;
64214;SDS011;54441;52.110;5.252;2022-07-18T07:52:23;6.3;;;2.8;;
64214;SDS011;54441;52.110;5.252;2022-07-18T07:54:10;6.4;;;3.4;;
64214;SDS011;54441;52.110;5.252;2022-07-18T07:55:56;3.7;;;2.7;;
64214;SDS011;54441;52.110;5.252;2022-07-18T07:57:44;7.1;;;2.5;;
64214;SDS011;54441;52.110;5.252;2022-07-18T07:59:32;5.4;;;2.6;;
64214;SDS011;54441;52.110;5.252;2022-07-18T08:01:19;5.8;;;2.9;;
64214;SDS011;54441;52.110;5.252;2022-07-18T08:04:53;8.2;;;2.9;;
64214;SDS011;54441;52.110;5.252;2022-07-18T08:06:39;7.1;;;2.7;;
64214;SDS011;54441;52.110;5.252;2022-07-18T08:08:25;6.1;;;2.31;;
64214;SDS011;54441;52.110;5.252;2022-07-18T08:10:12;4.61;;;2.6;;
64214;SDS011;54441;52.110;5.252;2022-07-18T08:11:59;8.0;;;2.9;;
64214;SDS011;54441;52.110;5.252;2022-07-18T08:13:45;5.0;;;2.21;;
64214;SDS011;54441;52.110;5.252;2022-07-18T08:17:17;5.3;;;2.9;;
64214;SDS011;54441;52.110;5.252;2022-07-18T08:19:04;5.6;;;2.8;;
64214;SDS011;54441;52.110;5.252;2022-07-18T08:20:51;3.9;;;2.8;;
64214;SDS011;54441;52.110;5.252;2022-07-18T08:22:37;4.2;;;2.1;;
64214;SDS011;54441;52.110;5.252;2022-07-18T08:24:38;3.5;;;2.21;;
64214;SDS011;54441;52.110;5.252;2022-07-18T08:26:25;7.2;;;2.7;;
64214;SDS011;54441;52.110;5.252;2022-07-18T08:29:59;6.2;;;2.9;;
64214;SDS011;54441;52.110;5.252;2022-07-18T08:31:45;6.7;;;2.7;;
64214;SDS011;54441;52.110;5.252;2022-07-18T08:33:32;3.9;;;2.5;;
64214;SDS011;54441;52.110;5.252;2022-07-18T08:35:19;2.8;;;2.21;;
64214;SDS011;54441;52.110;5.252;2022-07-18T08:37:06;4.8;;;2.7;;
64214;SDS011;54441;52.110;5.252;2022-07-18T08:38:53;4.1;;;2.21;;
64214;SDS011;54441;52.110;5.252;2022-07-18T08:42:26;6.9;;;2.6;;
64214;SDS011;54441;52.110;5.252;2022-07-18T08:44:14;6.4;;;2.9;;
64214;SDS011;54441;52.110;5.252;2022-07-18T08:46:01;5.4;;;2.7;;
64214;SDS011;54441;52.110;5.252;2022-07-18T08:47:51;5.4;;;2.7;;
64214;SDS011;54441;52.110;5.252;2022-07-18T08:49:39;4.0;;;2.1;;
64214;SDS011;54441;52.110;5.252;2022-07-18T08:51:25;4.7;;;2.9;;
64214;SDS011;54441;52.110;5.252;2022-07-18T08:55:00;8.6;;;2.9;;
64214;SDS011;54441;52.110;5.252;2022-07-18T08:56:48;5.11;;;2.31;;
64214;SDS011;54441;52.110;5.252;2022-07-18T09:00:22;6.7;;;3.4;;
64214;SDS011;54441;52.110;5.252;2022-07-18T09:02:09;6.5;;;3.1;;
64214;SDS011;54441;52.110;5.252;2022-07-18T09:04:32;5.5;;;2.9;;
64214;SDS011;54441;52.110;5.252;2022-07-18T09:06:22;5.4;;;2.9;;
64214;SDS011;54441;52.110;5.252;2022-07-18T09:08:09;5.2;;;2.9;;
64214;SDS011;54441;52.110;5.252;2022-07-18T09:11:49;4.3;;;2.8;;
64214;SDS011;54441;52.110;5.252;2022-07-18T09:13:38;7.5;;;3.1;;
64214;SDS011;54441;52.110;5.252;2022-07-18T09:15:26;8.0;;;2.5;;
64214;SDS011;54441;52.110;5.252;2022-07-18T09:17:12;5.8;;;2.6;;
64214;SDS011;54441;52.110;5.252;2022-07-18T09:19:04;6.8;;;2.7;;
64214;SDS011;54441;52.110;5.252;2022-07-18T09:20:56;10.5;;;2.21;;
64214;SDS011;54441;52.110;5.252;2022-07-18T09:24:37;7.6;;;3.0;;
64214;SDS011;54441;52.110;5.252;2022-07-18T09:26:38;5.11;;;3.1;;
64214;SDS011;54441;52.110;5.252;2022-07-18T09:28:27;3.9;;;2.9;;
64214;SDS011;54441;52.110;5.252;2022-07-18T09:30:17;6.3;;;2.8;;
64214;SDS011;54441;52.110;5.252;2022-07-18T09:32:07;3.9;;;2.8;;
64214;SDS011;54441;52.110;5.252;2022-07-18T09:33:54;3.3;;;2.4;;
64214;SDS011;54441;52.110;5.252;2022-07-18T09:35:43;8.1;;;2.4;;
64214;SDS011;54441;52.110;5.252;2022-07-18T09:37:31;6.0;;;2.7;;
64214;SDS011;54441;52.110;5.252;2022-07-18T09:41:06;6.7;;;2.4;;
64214;SDS011;54441;52.110;5.252;2022-07-18T09:42:57;6.3;;;2.4;;
64214;SDS011;54441;52.110;5.252;2022-07-18T09:44:56;3.5;;;2.5;;
64214;SDS011;54441;52.110;5.252;2022-07-18T09:47:00;3.3;;;2.5;;
64214;SDS011;54441;52.110;5.252;2022-07-18T09:48:47;5.4;;;2.6;;
64214;SDS011;54441;52.110;5.252;2022-07-18T09:50:54;7.6;;;2.6;;
64214;SDS011;54441;52.110;5.252;2022-07-18T09:52:42;4.1;;;2.1;;
64214;SDS011;54441;52.110;5.252;2022-07-18T09:54:34;5.2;;;1.9;;
64214;SDS011;54441;52.110;5.252;2022-07-18T09:56:22;4.91;;;2.1;;
64214;SDS011;54441;52.110;5.252;2022-07-18T09:59:59;3.5;;;1.9;;
64214;SDS011;54441;52.110;5.252;2022-07-18T10:01:45;5.8;;;2.1;;
64214;SDS011;54441;52.110;5.252;2022-07-18T10:03:32;4.91;;;2.0;;
64214;SDS011;54441;52.110;5.252;2022-07-18T10:05:19;3.9;;;1.8;;
64214;SDS011;54441;52.110;5.252;2022-07-18T10:07:05;3.2;;;1.9;;
64214;SDS011;54441;52.110;5.252;2022-07-18T10:08:53;5.9;;;2.4;;
64214;SDS011;54441;52.110;5.252;2022-07-18T10:12:32;3.7;;;2.5;;
64214;SDS011;54441;52.110;5.252;2022-07-18T10:14:19;5.0;;;2.5;;
64214;SDS011;54441;52.110;5.252;2022-07-18T10:16:07;5.3;;;2.21;;
64214;SDS011;54441;52.110;5.252;2022-07-18T10:17:54;3.6;;;2.6;;
64214;SDS011;54441;52.110;5.252;2022-07-18T10:19:43;4.0;;;2.6;;
64214;SDS011;54441;52.110;5.252;2022-07-18T10:21:30;3.2;;;2.0;;
64214;SDS011;54441;52.110;5.252;2022-07-18T10:25:08;3.6;;;2.21;;
64214;SDS011;54441;52.110;5.252;2022-07-18T10:27:14;7.8;;;2.6;;
64214;SDS011;54441;52.110;5.252;2022-07-18T10:29:19;8.81;;;2.4;;
64214;SDS011;54441;52.110;5.252;2022-07-18T10:31:12;3.2;;;2.21;;
64214;SDS011;54441;52.110;5.252;2022-07-18T10:33:00;4.8;;;2.1;;
64214;SDS011;54441;52.110;5.252;2022-07-18T10:34:48;3.7;;;2.21;;
64214;SDS011;54441;52.110;5.252;2022-07-18T10:36:36;8.0;;;2.7;;
64214;SDS011;54441;52.110;5.252;2022-07-18T10:38:24;4.5;;;2.4;;
64214;SDS011;54441;52.110;5.252;2022-07-18T10:40:28;2.4;;;2.21;;
64214;SDS011;54441;52.110;5.252;2022-07-18T10:44:25;4.3;;;2.31;;
64214;SDS011;54441;52.110;5.252;2022-07-18T10:46:18;6.5;;;2.1;;
64214;SDS011;54441;52.110;5.252;2022-07-18T10:48:23;4.3;;;2.5;;
64214;SDS011;54441;52.110;5.252;2022-07-18T10:50:49;4.1;;;2.7;;
64214;SDS011;54441;52.110;5.252;2022-07-18T10:52:55;3.0;;;2.31;;
64214;SDS011;54441;52.110;5.252;2022-07-18T10:57:12;2.1;;;1.7;;
64214;SDS011;54441;52.110;5.252;2022-07-18T11:00:46;4.7;;;2.0;;
64214;SDS011;54441;52.110;5.252;2022-07-18T11:02:38;2.5;;;2.21;;
64214;SDS011;54441;52.110;5.252;2022-07-18T11:04:27;3.3;;;1.7;;
64214;SDS011;54441;52.110;5.252;2022-07-18T11:06:15;6.4;;;2.1;;
64214;SDS011;54441;52.110;5.252;2022-07-18T11:08:18;5.2;;;2.21;;
64214;SDS011;54441;52.110;5.252;2022-07-18T11:10:33;3.2;;;2.0;;
64214;SDS011;54441;52.110;5.252;2022-07-18T11:13:20;3.2;;;2.1;;
64214;SDS011;54441;52.110;5.252;2022-07-18T11:15:08;6.0;;;2.21;;
64214;SDS011;54441;52.110;5.252;2022-07-18T11:17:04;3.2;;;2.31;;
64214;SDS011;54441;52.110;5.252;2022-07-18T11:19:23;3.3;;;1.9;;
64214;SDS011;54441;52.110;5.252;2022-07-18T11:21:15;3.0;;;2.4;;
64214;SDS011;54441;52.110;5.252;2022-07-18T11:23:03;4.61;;;2.31;;
64214;SDS011;54441;52.110;5.252;2022-07-18T11:24:58;5.8;;;2.4;;
64214;SDS011;54441;52.110;5.252;2022-07-18T11:26:47;9.21;;;2.6;;
64214;SDS011;54441;52.110;5.252;2022-07-18T11:28:35;3.6;;;2.7;;
64214;SDS011;54441;52.110;5.252;2022-07-18T11:32:10;8.6;;;2.8;;
64214;SDS011;54441;52.110;5.252;2022-07-18T11:33:58;5.11;;;2.5;;
64214;SDS011;54441;52.110;5.252;2022-07-18T11:35:47;3.1;;;2.4;;
64214;SDS011;54441;52.110;5.252;2022-07-18T11:37:35;4.61;;;2.1;;
64214;SDS011;54441;52.110;5.252;2022-07-18T11:39:27;3.4;;;2.5;;
64214;SDS011;54441;52.110;5.252;2022-07-18T11:41:17;6.0;;;3.1;;
64214;SDS011;54441;52.110;5.252;2022-07-18T11:43:04;5.5;;;3.2;;
64214;SDS011;54441;52.110;5.252;2022-07-18T11:46:44;5.9;;;2.6;;
64214;SDS011;54441;52.110;5.252;2022-07-18T11:48:30;3.7;;;3.1;;
64214;SDS011;54441;52.110;5.252;2022-07-18T11:50:18;7.5;;;3.3;;
64214;SDS011;54441;52.110;5.252;2022-07-18T11:52:20;13.4;;;3.1;;
64214;SDS011;54441;52.110;5.252;2022-07-18T11:54:08;6.1;;;3.0;;
64214;SDS011;54441;52.110;5.252;2022-07-18T11:55:56;5.8;;;3.4;;
64214;SDS011;54441;52.110;5.252;2022-07-18T11:57:49;3.5;;;2.6;;
64214;SDS011;54441;52.110;5.252;2022-07-18T12:01:30;5.4;;;3.5;;
64214;SDS011;54441;52.110;5.252;2022-07-18T12:03:17;3.3;;;3.0;;
64214;SDS011;54441;52.110;5.252;2022-07-18T12:05:06;5.7;;;3.0;;
64214;SDS011;54441;52.110;5.252;2022-07-18T12:07:25;4.7;;;3.4;;
64214;SDS011;54441;52.110;5.252;2022-07-18T12:09:12;4.5;;;3.2;;
64214;SDS011;54441;52.110;5.252;2022-07-18T12:11:14;5.9;;;3.1;;
64214;SDS011;54441;52.110;5.252;2022-07-18T12:13:04;3.2;;;2.4;;
64214;SDS011;54441;52.110;5.252;2022-07-18T12:14:54;4.8;;;3.1;;
64214;SDS011;54441;52.110;5.252;2022-07-18T12:16:45;6.7;;;3.6;;
64214;SDS011;54441;52.110;5.252;2022-07-18T12:18:33;5.8;;;3.3;;
64214;SDS011;54441;52.110;5.252;2022-07-18T12:22:09;4.8;;;3.5;;
64214;SDS011;54441;52.110;5.252;2022-07-18T12:23:57;5.2;;;3.1;;
64214;SDS011;54441;52.110;5.252;2022-07-18T12:25:43;5.11;;;3.9;;
64214;SDS011;54441;52.110;5.252;2022-07-18T12:27:34;7.2;;;5.0;;
64214;SDS011;54441;52.110;5.252;2022-07-18T12:29:21;6.5;;;4.0;;
64214;SDS011;54441;52.110;5.252;2022-07-18T12:31:35;8.5;;;3.9;;
64214;SDS011;54441;52.110;5.252;2022-07-18T12:33:23;6.3;;;3.3;;
64214;SDS011;54441;52.110;5.252;2022-07-18T12:36:58;4.1;;;3.2;;
64214;SDS011;54441;52.110;5.252;2022-07-18T12:38:59;6.5;;;3.9;;
64214;SDS011;54441;52.110;5.252;2022-07-18T12:40:48;5.8;;;3.5;;
64214;SDS011;54441;52.110;5.252;2022-07-18T12:42:36;4.7;;;2.5;;
64214;SDS011;54441;52.110;5.252;2022-07-18T12:44:26;7.9;;;2.6;;
64214;SDS011;54441;52.110;5.252;2022-07-18T12:46:13;6.9;;;3.4;;
64214;SDS011;54441;52.110;5.252;2022-07-18T12:48:00;5.5;;;3.7;;
64214;SDS011;54441;52.110;5.252;2022-07-18T12:51:32;8.1;;;3.9;;
64214;SDS011;54441;52.110;5.252;2022-07-18T12:53:18;8.1;;;3.4;;
64214;SDS011;54441;52.110;5.252;2022-07-18T12:55:05;4.61;;;3.0;;
64214;SDS011;54441;52.110;5.252;2022-07-18T12:56:51;5.8;;;3.0;;
64214;SDS011;54441;52.110;5.252;2022-07-18T12:58:37;5.5;;;3.0;;
64214;SDS011;54441;52.110;5.252;2022-07-18T13:00:25;3.5;;;2.7;;
64214;SDS011;54441;52.110;5.252;2022-07-18T13:03:59;5.7;;;2.5;;
64214;SDS011;54441;52.110;5.252;2022-07-18T13:05:46;6.3;;;3.0;;